Logo AVAMET
Benvolgut visitant, si us plau, ingressa Recuperar contrasenya
AVAMET paisatges

Picassent

Dades diàries. Acumulats / Últims 30 dies disponibles

Data Temperatura (°C) Humitat rel. (%) Pressió rel. (hPa) Vent (km/h) Precipitació
Mínima Mitjana Màxima Amplitud
tèrmica
Mínima Mitjana Màxima Mínima Mitjana Màxima Predom. Mitjana Ràfega
màxima
Total
(mm)
Índex-n
Mínima Mitjana Màxima Mínima Mitjana Màxima n
0 a 1
P0 max
mm 5'
Dades mensuals acumulades fins l'últim dia disponible
04/2020 8,2 10,5 11,7 13,7 16,2 17,9 20,1 11,9 48 80 95 1.011 1.018 1.027   5,4 28,1 11,7
Dades anuals acumulades fins l'últim dia disponible
2020 2,3 9,6 16,9 13,3 8,2 18,1 27,1 24,8 19 72 99 1.000 1.023 1.036   6,2 77,7 300,3
Últims 30 dies disponibles
06-04-2020 11,0     14,3     17,9 6,9 67 82 92 1.022 1.024 1.027 S 4,3 20,2 0,0
05-04-2020 11,2     13,4     17,3 6,1 61 80 92 1.021 1.022 1.023 SO 5,8 18,3 0,0
04-04-2020 8,2     13,3     17,2 9,0 60 79 89 1.020 1.021 1.022 SO 5,5 24,4 0,0
03-04-2020 9,4     13,5     18,9 9,5 48 76 94 1.016 1.017 1.020 SSO 5,7 28,1 1,0
02-04-2020 11,7     13,0     16,2 4,5 67 81 89 1.012 1.014 1.016 SSE 4,7 22,0 1,0 0,26 0,30
01-04-2020 11,6     14,5     20,1 8,5 57 80 95 1.011 1.012 1.014 SO 6,3 25,2 9,7
31-03-2020 7,2     10,4     14,7 7,5 76 89 95 1.011 1.012 1.015 OSO 6,0 27,0 13,7 0,32 0,50
30-03-2020 8,5     12,5     15,9 7,4 59 70 89 1.014 1.015 1.016 SE 5,1 23,7 1,8
29-03-2020 7,9     15,9     23,5 15,6 27 56 83 1.013 1.017 1.021 SO 5,3 26,3 0,0
28-03-2020 7,2     11,9     17,1 9,9 42 64 87 1.018 1.019 1.021 SO 5,5 20,2 0,0
27-03-2020 7,0     8,8     10,2 3,2 75 84 90 1.013 1.015 1.018 ONO 6,0 20,2 1,8
26-03-2020 6,7     11,2     17,2 10,5 32 69 93 1.008 1.011 1.015 SO 7,1 46,1
25-03-2020 9,1     10,0     12,6 3,5 73 85 92 1.016 1.018 1.019 SO 5,6 19,8 4,8 0,51 0,50
24-03-2020 12,6     13,6     14,4 1,8 68 80 92 1.017 1.018 1.020 NE 12,1 43,8
23-03-2020 11,8     13,8     16,7 4,9 74 90 96 1.016 1.017 1.019 ESE 6,3 25,5 5,7
22-03-2020 10,7     12,4     14,9 4,2 76 88 95 1.013 1.014 1.016 S 4,1 17,9 19,5 0,72 2,70
21-03-2020 11,1     12,7     14,6 3,5 76 84 92 1.013 1.015 1.019 SSO 4,8 17,9 3,3 0,12 0,30
20-03-2020 12,3     13,5     15,5 3,2 74 84 93 1.018 1.020 1.022 E 6,0 23,3 0,0
19-03-2020 11,1     13,2     16,2 5,1 76 87 93 1.022 1.024 1.027 SSO 5,3 21,6 0,0
18-03-2020 12,2     14,1     17,1 4,9 62 80 90 1.026 1.028 1.030 SSE 5,8 21,6
17-03-2020 9,3     12,2     14,4 5,1 87 95 97 1.021 1.025 1.030 S 6,4 33,5 20,8 0,46 0,80
16-03-2020 9,2     11,7     14,8 5,6 74 86 95 1.012 1.015 1.021 SSO 6,4 31,6 4,6
15-03-2020 12,1     14,7     17,9 5,8 63 82 92 1.016 1.019 1.022 SSO 5,7 22,0 0,0
14-03-2020 10,8     14,7     19,1 8,3 58 80 90 1.020 1.021 1.023 SO 4,8 20,2 0,0
13-03-2020 12,4     14,8     18,1 5,7 62 81 93 1.019 1.021 1.022 SSO 4,6 18,3 0,0
12-03-2020 11,2     15,7     20,9 9,7 50 73 89 1.018 1.021 1.023 SSO 4,1 16,5 0,0
11-03-2020 11,7     16,9     25,1 13,4 38 61 79 1.023 1.024 1.025 SO 4,4 17,9 0,0
10-03-2020 11,2     16,4     22,0 10,8 33 49 67 1.023 1.025 1.027 SO 5,3 22,0 0,0
09-03-2020 12,1     16,9     23,3 11,2 23 44 67 1.021 1.023 1.025 ONO 6,9 28,7 0,0
08-03-2020 10,1     15,3     23,4 13,3 27 55 73 1.021 1.024 1.026 OSO 6,4 27,4 0,0
Últims 13 mesos disponibles
03/2020 6,7 10,8 16,9 14,1 10,2 18,3 25,1 18,4 42 70 95 1.008 1.018 1.028 SO 7,2 77,7 76,0
02/2020 6,2 10,4 15,3 14,7 13,6 20,3 27,1 20,9 42 70 92 1.015 1.026 1.034 SO 5,7 47,7 9,7
01/2020 2,3 7,5 14,7 11,1 8,2 15,8 20,5 18,2 52 74 94 1.017 1.026 1.034 O 5,9 59,4 202,9
12/2019 5,3 10,6 14,9 13,5 12,7 17,3 24,3 19,0 51 70 94 1.008 1.023 1.034 ONO 7,2 67,9 80,3
11/2019 6,4 12,2 21,1 15,5 15,4 19,6 28,3 21,9 41 56 77 999 1.012 1.019 ONO 8,6 52,5 10,4
10/2019 11,9 16,1 20,4 20,1 16,2 24,8 34,8 22,9 42 68 84 1.009 1.018 1.023 SO 5,3 29,0 26,6
09/2019 15,5 20,3 23,2 23,8 21,6 27,8 34,1 18,6 35 71 84 1.011 1.018 1.025 SO 6,2 49,2 90,8
08/2019 18,2 22,7 27,2 26,5 26,7 30,7 41,3 23,1 39 69 79 1.011 1.016 1.021 S 6,1 40,0 6,6
07/2019 21,4 23,0 24,9 26,9 27,3 30,9 37,4 16,0 43 65 76 1.006 1.015 1.022 SSO 6,2 50,3 6,6
06/2019 13,7 18,4 22,4 22,8 20,9 27,1 34,6 20,9 35 63 77 1.009 1.016 1.023 S 6,3 42,0 0,0
05/2019 9,8 14,7 20,7 19,0 18,9 23,2 32,4 22,6 47 64 82 1.006 1.016 1.025 SSO 6,5 47,4 11,3
04/2019 8,6 11,6 14,7 15,4 15,2 19,9 29,9 21,3 37 65 96 1.000 1.014 1.026 SO 7,2 47,7 117,3
03/2019 6,9 9,8 15,7 14,7 12,8 20,0 28,6 21,7 38 56 88 1.011 1.024 1.031 SO 5,9 49,2 19,0
Tots els anys disponibles
2019 1,8 14,6 27,2 18,6 11,9 23,1 41,3 39,5 33 64 96 996 1.018 1.035 SO 6,5 67,9 368,6
2018 2,4 14,9 26,9 18,3 5,9 21,9 36,1 33,7 36 66 96 994 1.017 1.037 O 1,0 74,0 751,9
Temperatura (°C)
Humitat relativa (%)
Velocitat del vent i ràfega màxima (km/h)
Direcció del vent (°)
Pressió (hPa)
Precipitació (mm)
Nota sobre les dades: s'avisa a l'usuari de la provisionalitat i no oficialitat d'aquestes dades
Logo AVAMET blanc
Web allotjada a Sollutia
Llicència de Creative CommonsLa web d'AVAMET i els seus continguts estan subjectes a una llicència de
Reconeixement - No Comercial - Compartir igual
Últimes estacions:  Altea - Com. Regants (Soci), Almoines (Inforatge), Beniparrell (Inforatge), Albal (Inforatge), Almussafes - Parc Industrial (Inforatge), La Vilavella (Soci), la Serratella (soci) - - -